Time;durP1;ratioP1;P1;durP2;ratioP2;P2;SDS_P1;SDS_P2;PMS_P1;PMS_P2;Temp;Humidity;BMP_temperature;BMP_pressure;BME280_temperature;BME280_humidity;BME280_pressure;Samples;Min_cycle;Max_cycle;Signal;HPM_P1;HPM_P2
2022/01/13 00:00:04;;;;;;;39.63;27.25;;;;;;;-0.07;100.00;101714.38;5055120;28;20201;-78
2022/01/13 00:02:34;;;;;;;44.33;29.02;;;;;;;-0.09;100.00;101713.47;5055514;28;20210;-77
2022/01/13 00:05:00;;;;;;;44.40;29.25;;;;;;;-0.05;100.00;101709.97;5055570;28;20203;-77
2022/01/13 00:07:29;;;;;;;40.08;27.52;;;;;;;0.01;100.00;101714.50;5055104;28;20188;-77
2022/01/13 00:09:56;;;;;;;44.83;28.30;;;;;;;0.15;100.00;101714.75;5054893;28;20287;-77
2022/01/13 00:12:26;;;;;;;41.22;27.42;;;;;;;0.09;100.00;101710.25;5055679;28;20226;-77
2022/01/13 00:15:08;;;;;;;46.90;27.90;;;;;;;-0.02;100.00;101718.00;5055383;28;20266;-76
2022/01/13 00:17:56;;;;;;;42.63;26.95;;;;;;;0.26;100.00;101726.44;5055200;28;20696;-77
2022/01/13 00:21:09;;;;;;;45.42;26.80;;;;;;;0.31;100.00;101722.13;5055270;28;20196;-77
2022/01/13 00:23:45;;;;;;;34.15;25.40;;;;;;;0.42;100.00;101711.72;5054813;28;20254;-77
2022/01/13 00:26:21;;;;;;;43.08;26.35;;;;;;;0.63;100.00;101708.53;5054338;28;20245;-77
2022/01/13 00:28:51;;;;;;;36.72;25.40;;;;;;;0.64;100.00;101715.63;5055179;28;20622;-77
2022/01/13 00:31:24;;;;;;;38.33;25.20;;;;;;;0.66;100.00;101707.69;5054699;28;20184;-77
2022/01/13 00:33:54;;;;;;;36.05;25.52;;;;;;;0.20;100.00;101716.66;5055098;28;20212;-76
2022/01/13 00:36:21;;;;;;;37.30;24.70;;;;;;;0.07;100.00;101719.03;5054905;28;20231;-77
2022/01/13 00:38:50;;;;;;;37.55;24.23;;;;;;;0.02;100.00;101718.94;5054436;28;20262;-77
2022/01/13 00:41:17;;;;;;;37.30;24.27;;;;;;;0.12;100.00;101727.97;5054828;28;20558;-76
2022/01/13 00:43:46;;;;;;;37.05;25.10;;;;;;;-0.02;100.00;101728.59;5054284;28;20295;-77
2022/01/13 00:46:19;;;;;;;37.15;24.70;;;;;;;-0.26;100.00;101723.69;5055657;28;20210;-77
2022/01/13 00:48:46;;;;;;;36.92;24.27;;;;;;;-0.22;100.00;101733.50;5054314;28;20196;-77
2022/01/13 00:51:12;;;;;;;39.30;25.95;;;;;;;-0.22;100.00;101724.66;5054759;28;20675;-76
2022/01/13 00:53:39;;;;;;;30.83;23.60;;;;;;;-0.22;100.00;101730.84;5054616;28;20277;-77
2022/01/13 00:56:07;;;;;;;36.67;25.30;;;;;;;-0.09;100.00;101726.69;5054312;28;20208;-77
2022/01/13 00:58:36;;;;;;;36.00;24.63;;;;;;;-0.09;100.00;101736.38;5054169;28;20324;-76
2022/01/13 01:01:05;;;;;;;38.47;25.45;;;;;;;-0.28;100.00;101732.47;5054366;28;20582;-76
2022/01/13 01:03:33;;;;;;;36.22;24.27;;;;;;;-0.35;100.00;101736.75;5054327;28;20214;-76
2022/01/13 01:06:01;;;;;;;37.70;25.08;;;;;;;-0.40;100.00;101738.41;5053973;28;20672;-77
2022/01/13 01:08:28;;;;;;;33.88;23.23;;;;;;;-0.37;100.00;101738.47;5054087;28;20184;-76
2022/01/13 01:10:55;;;;;;;32.08;22.02;;;;;;;-0.31;100.00;101735.97;5053980;28;20278;-77
2022/01/13 01:13:29;;;;;;;35.25;23.88;;;;;;;-0.02;100.00;101733.00;5053623;28;20241;-77
2022/01/13 01:15:58;;;;;;;36.65;24.35;;;;;;;-0.17;100.00;101732.69;5053835;28;20238;-76
2022/01/13 01:18:32;;;;;;;33.17;22.73;;;;;;;-0.26;100.00;101728.09;5054222;28;20193;-76
2022/01/13 01:21:30;;;;;;;34.80;23.90;;;;;;;-0.37;100.00;101740.25;5053658;28;20187;-76
2022/01/13 01:26:55;;;;;;;37.25;23.35;;;;;;;-0.51;100.00;101734.66;4992438;28;20212;-77
2022/01/13 01:29:27;;;;;;;30.17;21.65;;;;;;;-0.49;100.00;101752.34;4991997;28;20219;-77
2022/01/13 01:31:56;;;;;;;37.83;23.95;;;;;;;-0.64;100.00;101755.53;5022280;28;20218;-76
2022/01/13 01:34:41;;;;;;;35.50;22.45;;;;;;;-0.65;100.00;101756.41;5053404;28;20231;-77
2022/01/13 01:37:14;;;;;;;35.15;23.67;;;;;;;-0.68;100.00;101752.78;5052847;28;20218;-76
2022/01/13 01:39:42;;;;;;;34.90;23.88;;;;;;;-0.68;100.00;101742.22;5053851;28;20597;-77
2022/01/13 01:42:09;;;;;;;34.33;22.52;;;;;;;-0.75;100.00;101748.22;5053337;28;20280;-77
2022/01/13 01:44:40;;;;;;;36.70;23.88;;;;;;;-0.69;100.00;101754.56;5053164;28;20252;-77
2022/01/13 01:47:10;;;;;;;35.47;22.30;;;;;;;-0.65;100.00;101756.41;5053536;28;20201;-77
2022/01/13 01:49:40;;;;;;;32.47;21.35;;;;;;;-0.69;100.00;101757.19;5053478;28;20929;-77
2022/01/13 01:52:08;;;;;;;31.17;21.65;;;;;;;-0.59;100.00;101747.69;5053136;28;20178;-77
2022/01/13 01:54:35;;;;;;;34.70;23.05;;;;;;;-0.50;100.00;101749.66;5053289;28;20285;-77
2022/01/13 01:57:02;;;;;;;37.00;22.30;;;;;;;-0.47;100.00;101749.75;5053064;28;20266;-76
2022/01/13 01:59:32;;;;;;;34.55;22.27;;;;;;;-0.32;100.00;101739.44;5053448;28;20289;-76
2022/01/13 02:02:00;;;;;;;30.85;21.90;;;;;;;-0.34;100.00;101746.50;5053642;28;20604;-76
2022/01/13 02:04:27;;;;;;;28.08;20.50;;;;;;;-0.15;100.00;101742.47;5052994;28;20298;-76
2022/01/13 02:06:56;;;;;;;31.90;21.70;;;;;;;0.11;100.00;101742.94;5053222;28;20183;-78
2022/01/13 02:09:24;;;;;;;29.73;20.92;;;;;;;0.10;100.00;101749.13;5053197;28;20237;-75
2022/01/13 02:11:52;;;;;;;23.25;16.38;;;;;;;-0.10;100.00;101745.19;5053116;28;20204;-76
2022/01/13 02:14:33;;;;;;;24.63;15.85;;;;;;;0.04;100.00;101753.41;5052787;28;20256;-76
2022/01/13 02:17:08;;;;;;;22.83;14.50;;;;;;;0.03;100.00;101757.81;5053420;28;20213;-77
2022/01/13 02:19:37;;;;;;;20.55;13.88;;;;;;;0.06;100.00;101746.38;5053293;28;20191;-77
2022/01/13 02:22:07;;;;;;;22.42;15.98;;;;;;;-0.01;100.00;101755.97;5052847;28;20188;-77
2022/01/13 02:24:34;;;;;;;28.55;17.50;;;;;;;-0.08;100.00;101748.78;5053551;28;20281;-76
2022/01/13 02:27:01;;;;;;;26.50;15.68;;;;;;;0.07;100.00;101746.44;5053264;28;20587;-77
2022/01/13 02:29:28;;;;;;;26.45;16.85;;;;;;;0.01;100.00;101742.78;5052944;28;20703;-77
2022/01/13 02:31:55;;;;;;;29.65;19.08;;;;;;;0.06;100.00;101743.75;5052633;28;20206;-77
2022/01/13 02:34:22;;;;;;;23.83;15.00;;;;;;;0.11;100.00;101745.59;5053061;28;20234;-77
2022/01/13 02:36:53;;;;;;;28.38;17.42;;;;;;;0.25;100.00;101737.94;5052576;28;20261;-76
2022/01/13 02:39:21;;;;;;;23.70;14.82;;;;;;;0.43;100.00;101736.47;5053039;28;20888;-77
2022/01/13 02:41:48;;;;;;;28.45;16.15;;;;;;;0.35;100.00;101738.97;5052525;28;20230;-77
2022/01/13 02:44:18;;;;;;;24.70;14.70;;;;;;;0.57;100.00;101729.66;5058236;28;20264;-77
2022/01/13 02:47:08;;;;;;;25.27;16.60;;;;;;;0.73;100.00;101733.44;5073002;28;20238;-77
2022/01/13 02:49:35;;;;;;;28.98;15.95;;;;;;;0.79;100.00;101744.13;5076923;28;20187;-77
2022/01/13 02:52:03;;;;;;;25.98;16.75;;;;;;;0.84;100.00;101726.56;5077075;28;20196;-76
2022/01/13 02:54:31;;;;;;;25.23;16.08;;;;;;;1.07;100.00;101731.31;5077013;28;20191;-77
2022/01/13 02:56:58;;;;;;;22.17;14.85;;;;;;;0.84;100.00;101739.81;5076287;28;20246;-77
2022/01/13 02:59:24;;;;;;;28.77;17.80;;;;;;;0.81;100.00;101734.44;5076527;28;20189;-76
2022/01/13 03:01:51;;;;;;;21.95;14.38;;;;;;;1.01;100.00;101732.09;5076659;28;20192;-77
2022/01/13 03:04:21;;;;;;;24.05;14.90;;;;;;;0.77;100.00;101737.91;5076746;28;20209;-77
2022/01/13 03:06:48;;;;;;;20.92;14.98;;;;;;;0.99;100.00;101740.03;5076670;28;20185;-77
2022/01/13 03:09:14;;;;;;;25.85;16.55;;;;;;;1.28;100.00;101738.69;5076416;28;20204;-77
2022/01/13 03:11:44;;;;;;;30.50;17.13;;;;;;;1.33;100.00;101729.91;5076362;28;20206;-77
2022/01/13 03:14:12;;;;;;;21.88;14.32;;;;;;;1.25;100.00;101721.84;5071893;28;20265;-77
2022/01/13 03:16:39;;;;;;;30.45;17.92;;;;;;;1.42;100.00;101713.22;5076424;28;20581;-77
2022/01/13 03:19:06;;;;;;;26.55;17.17;;;;;;;1.14;100.00;101712.84;5076019;28;20212;-77
2022/01/13 03:21:33;;;;;;;24.13;15.25;;;;;;;0.91;100.00;101717.81;5075571;28;20705;-76
2022/01/13 03:24:01;;;;;;;21.88;15.90;;;;;;;0.86;100.00;101724.81;5076028;28;20203;-77
2022/01/13 03:26:28;;;;;;;28.83;18.23;;;;;;;1.10;100.00;101726.94;5076276;28;20656;-76
2022/01/13 03:29:05;;;;;;;25.52;15.82;;;;;;;1.33;100.00;101724.59;5076472;28;20666;-77
2022/01/13 03:31:32;;;;;;;25.02;15.40;;;;;;;1.52;100.00;101719.56;5075994;28;20239;-77
2022/01/13 03:33:59;;;;;;;20.10;14.18;;;;;;;1.60;100.00;101725.84;5075864;28;20208;-76
2022/01/13 03:36:25;;;;;;;22.13;14.38;;;;;;;1.53;100.00;101723.97;5075828;28;20256;-77
2022/01/13 03:38:53;;;;;;;20.60;14.25;;;;;;;1.24;100.00;101717.44;5075490;28;20544;-77
2022/01/13 03:41:21;;;;;;;20.67;13.85;;;;;;;0.83;100.00;101716.78;5056290;28;20272;-77
2022/01/13 03:43:51;;;;;;;22.63;14.18;;;;;;;0.87;100.00;101733.66;5055906;28;20201;-76
2022/01/13 03:46:19;;;;;;;22.23;13.38;;;;;;;0.97;100.00;101731.19;5056010;28;20569;-76
2022/01/13 03:48:46;;;;;;;23.85;14.65;;;;;;;1.25;100.00;101743.09;5055821;28;20207;-76
2022/01/13 03:51:13;;;;;;;21.80;13.68;;;;;;;1.09;100.00;101748.16;5055404;28;20200;-76
2022/01/13 03:54:35;;;;;;;25.92;16.10;;;;;;;1.27;100.00;101753.72;5055641;28;20304;-78
2022/01/13 03:57:48;;;;;;;22.63;14.48;;;;;;;0.96;100.00;101742.66;4981460;28;20241;-77
2022/01/13 04:01:09;;;;;;;20.35;14.07;;;;;;;1.13;100.00;101747.31;5054344;28;20496;-76
2022/01/13 04:03:37;;;;;;;22.45;13.60;;;;;;;0.97;100.00;101741.81;5055368;28;20375;-75
2022/01/13 04:06:28;;;;;;;19.83;13.82;;;;;;;1.20;100.00;101741.25;5055419;28;20204;-76
2022/01/13 04:08:55;;;;;;;18.55;12.07;;;;;;;1.15;100.00;101733.19;5055366;28;20233;-76
2022/01/13 04:11:25;;;;;;;20.17;14.70;;;;;;;1.51;100.00;101728.38;5056592;28;20200;-78
2022/01/13 04:13:56;;;;;;;23.30;13.68;;;;;;;1.51;100.00;101737.22;5075208;28;20207;-75
2022/01/13 04:16:27;;;;;;;22.73;14.40;;;;;;;1.68;100.00;101734.81;5075123;28;20216;-76
2022/01/13 04:18:59;;;;;;;20.23;13.02;;;;;;;1.60;100.00;101726.72;5075105;28;20220;-75
2022/01/13 04:21:26;;;;;;;22.75;14.70;;;;;;;1.79;100.00;101727.84;5075161;28;20242;-77
2022/01/13 04:23:57;;;;;;;21.05;14.57;;;;;;;1.42;100.00;101738.00;5075178;28;20196;-77
2022/01/13 04:26:28;;;;;;;20.38;13.25;;;;;;;1.37;100.00;101734.41;5075278;28;20198;-77
2022/01/13 04:29:02;;;;;;;19.13;12.45;;;;;;;1.37;100.00;101729.09;5075249;28;20192;-77
2022/01/13 04:31:29;;;;;;;21.25;13.50;;;;;;;1.25;100.00;101734.25;5074966;28;20722;-77
2022/01/13 04:33:57;;;;;;;22.95;13.73;;;;;;;1.04;100.00;101745.41;5074767;28;20207;-77
2022/01/13 04:36:23;;;;;;;22.52;15.30;;;;;;;1.03;100.00;101752.47;5074777;28;20205;-77
2022/01/13 04:38:50;;;;;;;24.27;14.57;;;;;;;1.33;100.00;101748.50;5074736;28;20192;-76
2022/01/13 04:41:27;;;;;;;19.13;12.35;;;;;;;1.04;100.00;101751.63;5061804;28;20202;-77
2022/01/13 04:43:54;;;;;;;21.52;13.35;;;;;;;1.02;100.00;101739.22;5054755;28;20649;-77
2022/01/13 04:46:21;;;;;;;19.73;12.77;;;;;;;1.07;100.00;101739.28;5054469;28;20281;-77
2022/01/13 04:48:48;;;;;;;20.70;13.02;;;;;;;1.17;100.00;101733.22;5054130;28;20208;-77
2022/01/13 04:51:16;;;;;;;24.35;15.15;;;;;;;1.47;100.00;101732.78;5054497;28;20573;-77
2022/01/13 04:53:42;;;;;;;18.38;13.10;;;;;;;1.45;100.00;101730.09;5054426;28;20313;-77
2022/01/13 04:56:12;;;;;;;22.27;14.95;;;;;;;1.16;100.00;101724.38;5054174;28;20308;-77
2022/01/13 04:58:39;;;;;;;19.30;12.98;;;;;;;1.04;100.00;101730.41;5053937;28;20711;-77
2022/01/13 05:01:06;;;;;;;22.52;15.95;;;;;;;1.24;100.00;101729.78;5054430;28;20193;-77
2022/01/13 05:03:33;;;;;;;24.58;13.60;;;;;;;1.39;100.00;101739.75;5054431;28;20551;-77
2022/01/13 05:06:00;;;;;;;19.88;13.10;;;;;;;1.34;100.00;101737.03;5054024;28;20634;-77
2022/01/13 05:08:28;;;;;;;21.98;13.60;;;;;;;1.36;100.00;101729.09;5054190;28;20200;-77
2022/01/13 05:10:54;;;;;;;23.70;13.30;;;;;;;1.34;100.00;101734.38;5054199;28;20204;-77
2022/01/13 05:13:21;;;;;;;24.35;12.63;;;;;;;1.11;100.00;101722.50;5070488;28;20244;-77
2022/01/13 05:15:49;;;;;;;22.33;14.52;;;;;;;1.36;100.00;101723.78;5074006;28;20651;-77
2022/01/13 05:18:22;;;;;;;23.10;14.73;;;;;;;1.57;100.00;101723.16;5073644;28;20204;-77
2022/01/13 05:20:56;;;;;;;23.27;14.20;;;;;;;1.48;100.00;101723.03;5073725;28;20184;-78
2022/01/13 05:23:22;;;;;;;20.75;13.57;;;;;;;1.42;100.00;101722.06;5073579;28;20221;-76
2022/01/13 05:25:50;;;;;;;23.38;14.48;;;;;;;1.60;100.00;101709.91;5073746;28;20192;-77
2022/01/13 05:28:17;;;;;;;22.23;12.80;;;;;;;1.75;100.00;101707.44;5074055;28;20201;-77
2022/01/13 05:30:44;;;;;;;24.05;14.68;;;;;;;1.44;100.00;101709.69;5073888;28;20215;-78
2022/01/13 05:33:11;;;;;;;20.90;15.40;;;;;;;1.42;100.00;101713.22;5073632;28;20196;-78
2022/01/13 05:35:37;;;;;;;26.42;15.95;;;;;;;1.49;100.00;101709.75;5073401;28;20197;-77
2022/01/13 05:38:05;;;;;;;26.00;15.27;;;;;;;1.52;100.00;101706.28;5073363;28;20326;-76
2022/01/13 05:40:33;;;;;;;23.42;13.88;;;;;;;1.70;100.00;101722.44;5073685;28;20273;-77
2022/01/13 05:43:01;;;;;;;26.05;15.02;;;;;;;1.82;100.00;101724.34;5054666;28;20204;-77
2022/01/13 05:45:30;;;;;;;25.23;14.85;;;;;;;1.46;100.00;101723.91;5052957;28;20208;-78
2022/01/13 05:47:58;;;;;;;22.23;15.50;;;;;;;1.56;100.00;101716.97;5053199;28;20178;-78
2022/01/13 05:50:26;;;;;;;22.92;15.40;;;;;;;1.82;100.00;101711.94;5053750;28;20318;-76
2022/01/13 05:52:52;;;;;;;25.17;15.50;;;;;;;1.74;100.00;101713.63;5053883;28;20252;-76
2022/01/13 05:55:19;;;;;;;23.88;15.27;;;;;;;1.60;100.00;101715.22;5053561;28;20969;-76
2022/01/13 05:57:47;;;;;;;22.00;13.95;;;;;;;1.39;100.00;101721.16;5053010;28;20328;-76
2022/01/13 06:00:17;;;;;;;24.95;16.05;;;;;;;1.15;100.00;101730.53;5053156;28;20238;-76
2022/01/13 06:02:46;;;;;;;25.27;14.50;;;;;;;1.33;100.00;101731.69;5053231;28;20680;-76
2022/01/13 06:05:14;;;;;;;22.65;13.40;;;;;;;1.26;100.00;101738.66;5052996;28;20217;-75
2022/01/13 06:07:41;;;;;;;22.95;13.82;;;;;;;0.97;100.00;101739.16;5075751;28;20649;-77
2022/01/13 06:10:10;;;;;;;23.95;14.82;;;;;;;1.20;100.00;101734.16;5072000;28;20288;-79
2022/01/13 06:12:37;;;;;;;25.50;15.80;;;;;;;1.51;100.00;101731.03;5062440;28;20201;-78
2022/01/13 06:15:06;;;;;;;24.52;15.35;;;;;;;1.57;100.00;101717.84;5053844;28;20533;-77
2022/01/13 06:17:34;;;;;;;26.10;16.70;;;;;;;1.66;100.00;101724.16;5053540;28;20218;-76
2022/01/13 06:20:01;;;;;;;25.55;15.57;;;;;;;2.02;100.00;101727.22;5056625;28;20379;-76
2022/01/13 06:22:28;;;;;;;21.92;15.50;;;;;;;1.98;100.00;101731.59;5073455;28;20205;-78
2022/01/13 06:24:55;;;;;;;21.38;13.90;;;;;;;1.97;100.00;101721.00;5073354;28;20291;-76
2022/01/13 06:27:22;;;;;;;26.20;16.98;;;;;;;1.75;100.00;101719.84;5073029;28;20566;-79
2022/01/13 06:29:50;;;;;;;22.90;15.00;;;;;;;1.97;100.00;101729.84;5072865;28;20539;-77
2022/01/13 06:32:17;;;;;;;23.80;15.02;;;;;;;2.02;100.00;101722.81;5073427;28;20224;-76
2022/01/13 06:34:45;;;;;;;24.55;15.93;;;;;;;2.04;100.00;101722.81;5073384;28;20213;-77
2022/01/13 06:37:12;;;;;;;22.85;15.18;;;;;;;2.07;100.00;101728.16;5073451;28;20245;-75
2022/01/13 06:39:39;;;;;;;23.95;15.10;;;;;;;1.93;100.00;101724.47;5073076;28;20185;-78
2022/01/13 06:42:06;;;;;;;33.53;17.33;;;;;;;1.72;100.00;101726.00;5071770;28;20244;-78
2022/01/13 06:44:33;;;;;;;24.95;15.45;;;;;;;1.75;100.00;101720.72;5072909;28;20200;-78
2022/01/13 06:47:00;;;;;;;27.33;16.50;;;;;;;1.61;100.00;101727.66;5072334;28;20235;-78
2022/01/13 06:49:26;;;;;;;27.67;17.88;;;;;;;1.73;100.00;101719.81;5072945;28;20231;-77
2022/01/13 06:51:54;;;;;;;26.58;17.23;;;;;;;1.93;100.00;101720.03;5072800;28;20621;-76
2022/01/13 06:54:21;;;;;;;31.75;19.88;;;;;;;1.66;100.00;101734.78;5073053;28;20205;-74
2022/01/13 06:56:48;;;;;;;28.98;16.20;;;;;;;1.66;100.00;101733.91;5072386;28;20650;-74
2022/01/13 06:59:15;;;;;;;29.33;17.55;;;;;;;1.43;100.00;101736.25;5072538;28;20637;-75
2022/01/13 07:01:42;;;;;;;27.50;17.17;;;;;;;1.60;100.00;101733.81;5072540;28;20500;-75
2022/01/13 07:04:10;;;;;;;27.52;15.52;;;;;;;1.58;100.00;101749.75;5071832;28;20233;-75
2022/01/13 07:06:37;;;;;;;23.20;14.75;;;;;;;1.51;100.00;101757.59;5071881;28;20254;-75
2022/01/13 07:09:08;;;;;;;24.95;15.20;;;;;;;1.76;100.00;101749.06;5072319;28;20645;-75
2022/01/13 07:11:36;;;;;;;28.42;16.15;;;;;;;1.52;100.00;101752.31;5066159;28;20289;-75
2022/01/13 07:14:03;;;;;;;23.52;15.50;;;;;;;1.73;100.00;101748.16;5051475;28;20193;-76
2022/01/13 07:16:30;;;;;;;26.40;16.05;;;;;;;1.54;100.00;101747.00;5051505;28;20291;-76
2022/01/13 07:18:58;;;;;;;27.55;17.05;;;;;;;1.61;100.00;101751.53;5051752;28;20234;-76
2022/01/13 07:21:27;;;;;;;28.75;17.92;;;;;;;1.65;100.00;101758.66;5052031;28;20705;-76
2022/01/13 07:23:54;;;;;;;29.10;16.63;;;;;;;1.80;100.00;101764.16;5051853;28;20666;-76
2022/01/13 07:26:22;;;;;;;26.33;15.25;;;;;;;1.67;100.00;101767.53;5051484;28;20204;-76
2022/01/13 07:28:49;;;;;;;28.45;16.52;;;;;;;1.97;100.00;101771.47;5051270;28;20230;-75
2022/01/13 07:31:16;;;;;;;28.95;16.08;;;;;;;2.06;100.00;101769.81;5051998;28;20729;-75
2022/01/13 07:33:43;;;;;;;29.00;15.88;;;;;;;1.88;100.00;101769.59;5051703;28;20201;-75
2022/01/13 07:36:10;;;;;;;27.20;16.70;;;;;;;1.74;100.00;101782.72;5054617;28;20217;-75
2022/01/13 07:38:37;;;;;;;27.40;16.35;;;;;;;1.32;100.00;101775.91;5062927;28;20555;-76
2022/01/13 07:41:04;;;;;;;28.80;17.13;;;;;;;1.59;100.00;101780.72;5075142;28;20299;-75
2022/01/13 07:43:32;;;;;;;26.88;16.88;;;;;;;1.65;100.00;101774.59;5074944;28;20614;-76
2022/01/13 07:45:59;;;;;;;25.67;15.90;;;;;;;1.83;100.00;101774.84;5075198;28;20237;-75
2022/01/13 07:48:26;;;;;;;25.58;16.05;;;;;;;1.91;100.00;101780.25;5074674;28;20220;-76
2022/01/13 07:50:53;;;;;;;31.38;17.20;;;;;;;1.98;100.00;101771.47;5074809;28;20284;-75
2022/01/13 07:53:20;;;;;;;30.33;19.35;;;;;;;2.01;100.00;101770.59;5074800;28;20552;-75
2022/01/13 07:55:47;;;;;;;25.83;16.60;;;;;;;1.81;100.00;101771.28;5074717;28;20184;-76
2022/01/13 07:58:14;;;;;;;27.20;17.77;;;;;;;2.21;100.00;101761.09;5074600;28;20745;-75
2022/01/13 08:00:43;;;;;;;23.60;15.10;;;;;;;2.18;100.00;101765.50;5074321;28;20274;-75
2022/01/13 08:03:10;;;;;;;23.75;15.10;;;;;;;2.09;100.00;101775.16;5074534;28;20203;-77
2022/01/13 08:05:36;;;;;;;24.02;15.00;;;;;;;2.09;100.00;101776.91;5074947;28;20576;-76
2022/01/13 08:08:03;;;;;;;27.00;16.00;;;;;;;1.97;100.00;101771.47;5072439;28;20607;-75
2022/01/13 08:10:30;;;;;;;20.83;14.20;;;;;;;2.06;100.00;101776.91;5055395;28;20240;-76
2022/01/13 08:12:56;;;;;;;43.97;18.73;;;;;;;2.61;100.00;101777.44;5054556;28;20186;-76
2022/01/13 08:15:23;;;;;;;21.83;13.90;;;;;;;2.56;100.00;101773.88;5054623;28;20248;-76
2022/01/13 08:20:35;;;;;;;25.88;14.63;;;;;;;2.35;100.00;101776.28;5054322;28;20201;-76
2022/01/13 08:23:03;;;;;;;24.52;15.38;;;;;;;2.12;100.00;101776.94;5054237;28;20228;-76
2022/01/13 08:25:30;;;;;;;24.05;13.10;;;;;;;2.11;100.00;101771.63;5054217;28;20281;-75
2022/01/13 08:27:58;;;;;;;23.77;13.75;;;;;;;1.99;100.00;101769.69;5054004;28;20198;-76
2022/01/13 08:30:25;;;;;;;20.70;13.30;;;;;;;2.13;100.00;101761.91;5053730;28;20281;-76
2022/01/13 08:32:53;;;;;;;21.67;13.00;;;;;;;2.08;100.00;101764.47;5054100;28;20703;-76
2022/01/13 08:35:20;;;;;;;21.58;12.98;;;;;;;1.73;100.00;101759.66;5053802;28;20207;-76
2022/01/13 08:37:46;;;;;;;20.15;13.40;;;;;;;1.86;100.00;101763.38;5054233;28;20259;-74
2022/01/13 08:40:16;;;;;;;23.95;12.15;;;;;;;2.05;100.00;101767.13;5054152;28;20198;-75
2022/01/13 08:42:43;;;;;;;25.27;13.45;;;;;;;1.92;100.00;101770.50;5053521;28;20285;-75
2022/01/13 08:45:12;;;;;;;21.88;13.15;;;;;;;1.65;100.00;101774.59;5053935;28;20391;-75
2022/01/13 08:47:39;;;;;;;19.80;12.30;;;;;;;2.08;100.00;101767.13;5054067;28;20227;-75
2022/01/13 08:50:08;;;;;;;21.83;12.30;;;;;;;1.85;100.00;101769.53;5053993;28;20285;-74
2022/01/13 08:52:37;;;;;;;22.70;14.30;;;;;;;1.81;100.00;101771.28;5054203;28;20202;-74
2022/01/13 08:55:05;;;;;;;23.15;13.57;;;;;;;1.58;100.00;101767.41;5054407;28;20251;-74
2022/01/13 08:57:32;;;;;;;23.27;13.65;;;;;;;1.41;100.00;101772.50;5053319;28;20268;-75
2022/01/13 08:59:59;;;;;;;22.23;13.32;;;;;;;1.75;100.00;101776.50;5054312;28;20233;-75
2022/01/13 09:02:29;;;;;;;19.98;12.68;;;;;;;1.49;100.00;101784.09;5053548;28;20186;-74
2022/01/13 09:04:56;;;;;;;22.17;13.70;;;;;;;1.73;100.00;101780.91;5053567;28;20277;-76
2022/01/13 09:07:24;;;;;;;23.17;12.35;;;;;;;1.58;100.00;101780.69;5053922;28;20695;-77
2022/01/13 09:09:51;;;;;;;20.92;13.43;;;;;;;1.59;100.00;101772.75;5053776;28;20662;-74
2022/01/13 09:12:17;;;;;;;20.17;11.68;;;;;;;1.65;100.00;101778.16;5053258;28;20237;-75
2022/01/13 09:14:44;;;;;;;21.23;14.05;;;;;;;2.06;100.00;101774.25;5053816;28;20582;-75
2022/01/13 09:17:19;;;;;;;16.85;11.57;;;;;;;1.84;100.00;101775.75;5053481;28;20229;-75
2022/01/13 09:19:46;;;;;;;27.42;13.07;;;;;;;2.03;100.00;101774.19;5053452;28;20190;-76
2022/01/13 09:22:13;;;;;;;20.42;12.65;;;;;;;2.19;100.00;101772.59;5053350;28;20186;-74
2022/01/13 09:24:41;;;;;;;21.13;13.07;;;;;;;2.41;100.00;101773.72;5053442;28;20628;-75
2022/01/13 09:27:08;;;;;;;26.95;15.07;;;;;;;2.28;100.00;101784.22;5052708;28;20210;-76
2022/01/13 09:29:35;;;;;;;23.48;13.50;;;;;;;2.46;100.00;101779.97;5053177;28;20632;-76
2022/01/13 09:32:02;;;;;;;21.73;13.77;;;;;;;2.33;100.00;101786.94;5053274;28;20684;-75
2022/01/13 09:34:28;;;;;;;19.45;12.73;;;;;;;2.01;100.00;101783.91;5053241;28;20508;-76
2022/01/13 09:36:55;;;;;;;22.73;13.70;;;;;;;2.39;100.00;101784.31;5053172;28;20208;-75
2022/01/13 09:39:24;;;;;;;23.05;14.10;;;;;;;2.65;100.00;101787.25;5053099;28;20695;-75
2022/01/13 09:41:52;;;;;;;22.60;13.85;;;;;;;2.86;100.00;101789.19;5053122;28;20188;-75
2022/01/13 09:44:19;;;;;;;32.83;15.35;;;;;;;2.92;100.00;101788.38;5052721;28;20297;-74
2022/01/13 09:46:47;;;;;;;20.52;13.45;;;;;;;3.12;100.00;101784.09;5052541;28;20244;-75
2022/01/13 09:49:14;;;;;;;17.50;12.75;;;;;;;3.34;100.00;101782.44;5052838;28;20194;-75
2022/01/13 09:51:45;;;;;;;17.85;11.88;;;;;;;3.47;100.00;101790.53;5052955;28;20182;-75
2022/01/13 09:54:13;;;;;;;21.75;13.38;;;;;;;3.53;100.00;101783.47;5052678;28;20191;-76
2022/01/13 09:56:40;;;;;;;21.27;12.85;;;;;;;3.15;100.00;101791.22;5052984;28;20214;-77
2022/01/13 09:59:09;;;;;;;20.80;13.75;;;;;;;3.39;100.00;101781.59;5052207;28;20210;-77
2022/01/13 10:01:36;;;;;;;20.10;13.18;;;;;;;3.26;100.00;101788.63;5052593;28;20206;-78
2022/01/13 10:04:03;;;;;;;22.65;14.25;;;;;;;3.17;100.00;101796.56;5052538;28;20206;-77
2022/01/13 10:06:30;;;;;;;22.73;14.55;;;;;;;3.34;100.00;101784.22;5051960;28;20182;-78
2022/01/13 10:08:58;;;;;;;23.60;15.52;;;;;;;3.34;100.00;101784.22;5052223;28;20251;-78
2022/01/13 10:11:28;;;;;;;19.65;13.50;;;;;;;3.17;100.00;101777.94;5052303;28;20186;-77
2022/01/13 10:14:17;;;;;;;20.75;12.63;;;;;;;2.73;100.00;101782.00;5052201;28;20702;-78
2022/01/13 10:16:46;;;;;;;22.00;13.77;;;;;;;2.97;100.00;101775.09;5051924;28;20188;-77
2022/01/13 10:19:30;;;;;;;24.70;15.63;;;;;;;3.37;100.00;101776.28;5052016;28;20328;-77
2022/01/13 10:21:59;;;;;;;22.33;14.70;;;;;;;3.68;100.00;101774.66;5052108;28;20232;-78
2022/01/13 10:24:28;;;;;;;18.05;12.15;;;;;;;3.55;100.00;101768.41;5051925;28;20281;-77
2022/01/13 10:27:07;;;;;;;52.28;32.35;;;;;;;3.26;100.00;101768.22;5053380;28;20194;-77
2022/01/13 10:29:41;;;;;;;21.63;13.55;;;;;;;3.49;100.00;101767.47;5052370;28;20559;-75
2022/01/13 10:32:08;;;;;;;18.27;13.02;;;;;;;3.50;100.00;101769.22;5052219;28;20186;-77
2022/01/13 10:34:38;;;;;;;21.42;13.57;;;;;;;3.45;100.00;101768.31;5051918;28;20232;-77
2022/01/13 10:37:11;;;;;;;18.30;11.88;;;;;;;3.49;100.00;101763.03;5051916;28;20288;-77
2022/01/13 10:39:57;;;;;;;26.00;14.65;;;;;;;3.47;100.00;101764.78;5051867;28;20272;-77
2022/01/13 10:43:09;;;;;;;22.95;13.25;;;;;;;3.39;100.00;101762.94;5052130;28;20196;-77
2022/01/13 10:45:40;;;;;;;24.80;15.73;;;;;;;3.05;100.00;101757.41;5051560;28;20252;-74
2022/01/13 10:48:09;;;;;;;25.95;14.70;;;;;;;3.07;100.00;101761.84;5051961;28;20596;-77
2022/01/13 10:50:39;;;;;;;20.95;13.00;;;;;;;3.02;100.00;101752.97;5051867;28;20625;-76
2022/01/13 10:53:08;;;;;;;26.40;14.95;;;;;;;2.97;100.00;101762.69;5051639;28;20586;-76
2022/01/13 10:55:42;;;;;;;25.38;14.45;;;;;;;3.02;100.00;101752.97;5051883;28;20670;-76
2022/01/13 10:58:09;;;;;;;23.90;14.82;;;;;;;3.07;100.00;101756.53;5051506;28;20263;-76
2022/01/13 11:00:38;;;;;;;20.52;12.77;;;;;;;3.07;100.00;101745.00;5051253;28;20248;-76
2022/01/13 11:03:10;;;;;;;19.95;14.15;;;;;;;3.19;100.00;101746.84;5051621;28;20296;-76
2022/01/13 11:05:39;;;;;;;27.10;15.05;;;;;;;3.38;100.00;101743.44;5051648;28;20218;-76
2022/01/13 11:08:08;;;;;;;24.00;14.60;;;;;;;3.45;100.00;101742.56;5052133;28;20193;-76
2022/01/13 11:10:37;;;;;;;22.70;14.95;;;;;;;3.62;100.00;101744.41;5055608;28;20288;-75
2022/01/13 11:13:06;;;;;;;21.92;14.23;;;;;;;3.26;100.00;101743.38;5055312;28;20281;-76
2022/01/13 11:15:34;;;;;;;20.42;14.25;;;;;;;3.17;100.00;101738.00;5055329;28;20205;-76
2022/01/13 11:18:03;;;;;;;19.30;13.18;;;;;;;3.08;100.00;101739.69;5055480;28;20306;-76
2022/01/13 11:20:30;;;;;;;23.85;14.90;;;;;;;3.20;100.00;101738.00;5055203;28;20205;-76
2022/01/13 11:22:58;;;;;;;24.45;13.95;;;;;;;3.37;100.00;101741.66;5055752;28;20538;-76
2022/01/13 11:25:27;;;;;;;22.83;14.70;;;;;;;3.57;100.00;101747.06;5056155;28;20594;-77